UAL1228 KLAX-KEWR
Flight info
| Callsign | UAL1228 |
|---|---|
| Flight time | N/A |
| Altitude | 33000 |
| Route | ORCKA5 LAS J146 DVC HBU MCK/N0449F350 OVR DSM EVOTE NELLS KEEHO J584 SLT FQM3 |
| Aircraft | B738/M-SDE2E3FGHIRWXY/LB1 |
Departure
| Time | 2026-04-25 06:39 |
|---|---|
| Airport | Los Angeles International Airport (KLAX) |
Arrival
| Time | N/A |
|---|---|
| Airport | Newark Liberty International Airport (KEWR) |
| Time | Latitude | Longitude | Altitude | Speed | Heading |
|---|---|---|---|---|---|
| 2026-04-25 06:23 | 33.94070 | -118.40009 | 125 ft | 0 kts | 80° |
| 2026-04-25 06:30 | 33.94069 | -118.40013 | 125 ft | 2 kts | 79° |
| 2026-04-25 06:30 | 33.94066 | -118.40031 | 125 ft | 2 kts | 80° |
| 2026-04-25 06:30 | 33.94064 | -118.40049 | 125 ft | 2 kts | 88° |
| 2026-04-25 06:30 | 33.94068 | -118.40066 | 125 ft | 2 kts | 130° |
| 2026-04-25 06:31 | 33.94080 | -118.40076 | 125 ft | 1 kts | 165° |
| 2026-04-25 06:31 | 33.94084 | -118.40077 | 125 ft | 0 kts | 174° |
| 2026-04-25 06:31 | 33.94060 | -118.40073 | 125 ft | 3 kts | 173° |
| 2026-04-25 06:31 | 33.94053 | -118.40072 | 125 ft | 0 kts | 173° |
| 2026-04-25 06:33 | 33.94016 | -118.40067 | 125 ft | 12 kts | 173° |
| 2026-04-25 06:33 | 33.93930 | -118.40054 | 123 ft | 11 kts | 172° |
| 2026-04-25 06:34 | 33.93882 | -118.39992 | 121 ft | 12 kts | 94° |
| 2026-04-25 06:34 | 33.93894 | -118.39848 | 119 ft | 20 kts | 83° |
| 2026-04-25 06:34 | 33.93911 | -118.39681 | 117 ft | 20 kts | 83° |
| 2026-04-25 06:34 | 33.93928 | -118.39514 | 113 ft | 20 kts | 83° |
| 2026-04-25 06:35 | 33.93945 | -118.39349 | 111 ft | 19 kts | 83° |
| 2026-04-25 06:35 | 33.93961 | -118.39192 | 109 ft | 18 kts | 83° |
| 2026-04-25 06:35 | 33.93976 | -118.39045 | 108 ft | 17 kts | 83° |
| 2026-04-25 06:35 | 33.93990 | -118.38909 | 108 ft | 15 kts | 83° |
| 2026-04-25 06:36 | 33.94003 | -118.38783 | 107 ft | 14 kts | 83° |
| 2026-04-25 06:36 | 33.94015 | -118.38666 | 106 ft | 13 kts | 83° |
| 2026-04-25 06:36 | 33.94027 | -118.38548 | 105 ft | 14 kts | 83° |
| 2026-04-25 06:36 | 33.94038 | -118.38435 | 105 ft | 13 kts | 83° |
| 2026-04-25 06:37 | 33.94049 | -118.38330 | 104 ft | 13 kts | 83° |
| 2026-04-25 06:37 | 33.94062 | -118.38206 | 103 ft | 15 kts | 83° |
| 2026-04-25 06:37 | 33.94074 | -118.38086 | 102 ft | 13 kts | 83° |
| 2026-04-25 06:37 | 33.94044 | -118.38003 | 102 ft | 11 kts | 162° |
| 2026-04-25 06:38 | 33.93985 | -118.38025 | 101 ft | 9 kts | 255° |
| 2026-04-25 06:38 | 33.93973 | -118.38129 | 102 ft | 30 kts | 263° |
| 2026-04-25 06:38 | 33.93917 | -118.38678 | 106 ft | 99 kts | 263° |
| 2026-04-25 06:38 | 33.93806 | -118.39761 | 117 ft | 158 kts | 263° |
| 2026-04-25 06:39 | 33.93648 | -118.41235 | 330 ft | 188 kts | 262° |
| 2026-04-25 06:39 | 33.93493 | -118.42797 | 1024 ft | 192 kts | 263° |
| 2026-04-25 06:39 | 33.93321 | -118.44467 | 1363 ft | 209 kts | 263° |
| 2026-04-25 06:39 | 33.93136 | -118.46282 | 1689 ft | 228 kts | 262° |
| 2026-04-25 06:40 | 33.92701 | -118.48153 | 2120 ft | 243 kts | 246° |
| 2026-04-25 06:40 | 33.91952 | -118.49985 | 2780 ft | 249 kts | 244° |
| 2026-04-25 06:40 | 33.91163 | -118.51891 | 3306 ft | 260 kts | 246° |
| 2026-04-25 06:40 | 33.90263 | -118.53652 | 3911 ft | 267 kts | 226° |
| 2026-04-25 06:41 | 33.88692 | -118.54788 | 4668 ft | 269 kts | 195° |
| 2026-04-25 06:41 | 33.86822 | -118.54898 | 5368 ft | 273 kts | 171° |
| 2026-04-25 06:41 | 33.85044 | -118.54086 | 6034 ft | 279 kts | 150° |
| 2026-04-25 06:41 | 33.83555 | -118.52589 | 6651 ft | 286 kts | 128° |
| 2026-04-25 06:42 | 33.82715 | -118.50423 | 7271 ft | 291 kts | 99° |
| 2026-04-25 06:42 | 33.82849 | -118.48029 | 7894 ft | 293 kts | 70° |
| 2026-04-25 06:42 | 33.83873 | -118.45914 | 8537 ft | 293 kts | 46° |
| 2026-04-25 06:42 | 33.85473 | -118.44412 | 9071 ft | 296 kts | 22° |
| 2026-04-25 06:43 | 33.87449 | -118.43816 | 9676 ft | 294 kts | 2° |
| 2026-04-25 06:43 | 33.89490 | -118.43774 | 10243 ft | 298 kts | 356° |
| 2026-04-25 06:43 | 33.91604 | -118.43619 | 10525 ft | 316 kts | 9° |
| 2026-04-25 06:43 | 33.93679 | -118.42545 | 10798 ft | 337 kts | 35° |
| 2026-04-25 06:44 | 33.95324 | -118.40459 | 11092 ft | 353 kts | 53° |
| 2026-04-25 06:44 | 33.96719 | -118.37936 | 11257 ft | 372 kts | 57° |
| 2026-04-25 06:44 | 33.98109 | -118.35249 | 11534 ft | 386 kts | 57° |
| 2026-04-25 06:44 | 33.99568 | -118.32468 | 12036 ft | 393 kts | 56° |
| 2026-04-25 06:45 | 34.01054 | -118.29712 | 12548 ft | 398 kts | 55° |
| 2026-04-25 06:45 | 34.02591 | -118.26928 | 13056 ft | 403 kts | 54° |
| 2026-04-25 06:45 | 34.04182 | -118.24091 | 13586 ft | 408 kts | 54° |
| 2026-04-25 06:45 | 34.05789 | -118.21249 | 14108 ft | 412 kts | 54° |
| 2026-04-25 06:46 | 34.07403 | -118.18403 | 14689 ft | 415 kts | 54° |
| 2026-04-25 06:46 | 34.09042 | -118.15514 | 15235 ft | 418 kts | 53° |
| 2026-04-25 06:46 | 34.10681 | -118.12624 | 15754 ft | 422 kts | 53° |
| 2026-04-25 06:46 | 34.12337 | -118.09699 | 16284 ft | 424 kts | 53° |
| 2026-04-25 06:47 | 34.14005 | -118.06751 | 16790 ft | 428 kts | 53° |
| 2026-04-25 06:47 | 34.15698 | -118.03752 | 17265 ft | 432 kts | 53° |
| 2026-04-25 06:47 | 34.17392 | -118.00745 | 17722 ft | 436 kts | 53° |
| 2026-04-25 06:47 | 34.19096 | -117.97716 | 18173 ft | 441 kts | 54° |
| 2026-04-25 06:48 | 34.20822 | -117.94644 | 18619 ft | 445 kts | 53° |
| 2026-04-25 06:48 | 34.22563 | -117.91544 | 19131 ft | 447 kts | 53° |
| 2026-04-25 06:48 | 34.24313 | -117.88428 | 19603 ft | 450 kts | 53° |
| 2026-04-25 06:48 | 34.26078 | -117.85281 | 20035 ft | 454 kts | 53° |
| 2026-04-25 06:49 | 34.27837 | -117.82143 | 20525 ft | 456 kts | 53° |
| 2026-04-25 06:49 | 34.29628 | -117.78948 | 20961 ft | 460 kts | 53° |
| 2026-04-25 06:49 | 34.31418 | -117.75751 | 21398 ft | 463 kts | 53° |
| 2026-04-25 06:49 | 34.33221 | -117.72524 | 21816 ft | 466 kts | 53° |
| 2026-04-25 06:50 | 34.35065 | -117.69224 | 22213 ft | 470 kts | 53° |
| 2026-04-25 06:50 | 34.36916 | -117.65979 | 22644 ft | 472 kts | 52° |
| 2026-04-25 06:50 | 34.38819 | -117.62746 | 22968 ft | 477 kts | 51° |
| 2026-04-25 06:50 | 34.40785 | -117.59466 | 23395 ft | 479 kts | 51° |
| 2026-04-25 06:51 | 34.42730 | -117.56240 | 23833 ft | 481 kts | 51° |
| 2026-04-25 06:51 | 34.44725 | -117.52935 | 24223 ft | 484 kts | 51° |
| 2026-04-25 06:51 | 34.46708 | -117.49642 | 24602 ft | 487 kts | 51° |
| 2026-04-25 06:51 | 34.48709 | -117.46310 | 24977 ft | 491 kts | 51° |
| 2026-04-25 06:52 | 34.50707 | -117.42971 | 25314 ft | 494 kts | 51° |
| 2026-04-25 06:52 | 34.52739 | -117.39565 | 25721 ft | 496 kts | 51° |
| 2026-04-25 06:52 | 34.54762 | -117.36166 | 26067 ft | 500 kts | 51° |
| 2026-04-25 06:52 | 34.56785 | -117.32758 | 26398 ft | 503 kts | 51° |
| 2026-04-25 06:53 | 34.58837 | -117.29296 | 26776 ft | 504 kts | 51° |
| 2026-04-25 06:53 | 34.60869 | -117.25861 | 27090 ft | 507 kts | 51° |
| 2026-04-25 06:53 | 34.62922 | -117.22386 | 27443 ft | 509 kts | 51° |
| 2026-04-25 06:53 | 34.65008 | -117.18853 | 27749 ft | 512 kts | 51° |
| 2026-04-25 06:54 | 34.67076 | -117.15346 | 28187 ft | 512 kts | 51° |
| 2026-04-25 06:54 | 34.69129 | -117.11858 | 28748 ft | 508 kts | 51° |
| 2026-04-25 06:54 | 34.71156 | -117.08410 | 29272 ft | 505 kts | 51° |
| 2026-04-25 06:54 | 34.73189 | -117.04948 | 29790 ft | 502 kts | 51° |
| 2026-04-25 06:55 | 34.75225 | -117.01480 | 30154 ft | 502 kts | 51° |
| 2026-04-25 06:55 | 34.77274 | -116.97991 | 30464 ft | 504 kts | 51° |